Time;durP1;ratioP1;P1;durP2;ratioP2;P2;SDS_P1;SDS_P2;PMS_P1;PMS_P2;Temp;Humidity;BMP_temperature;BMP_pressure;BME280_temperature;BME280_humidity;BME280_pressure;Samples;Min_cycle;Max_cycle;Signal;HPM_P1;HPM_P2
2023/12/01 00:00:44;;;;;;;17.10;2.25;;;20.90;74.30;;;;;;4992620;28;20048;-64
2023/12/01 00:03:11;;;;;;;16.42;3.17;;;20.90;74.80;;;;;;5001426;28;20567;-65
2023/12/01 00:05:37;;;;;;;18.15;2.90;;;20.80;74.20;;;;;;4992228;28;20049;-66
2023/12/01 00:08:04;;;;;;;14.77;2.65;;;20.70;74.40;;;;;;5000160;28;20079;-65
2023/12/01 00:10:30;;;;;;;6.72;2.10;;;20.80;75.20;;;;;;4990900;28;20044;-65
2023/12/01 00:12:57;;;;;;;8.95;2.45;;;20.70;75.30;;;;;;4990561;28;20055;-65
2023/12/01 00:15:23;;;;;;;16.00;2.33;;;20.60;75.40;;;;;;4994372;28;20058;-65
2023/12/01 00:17:50;;;;;;;14.43;3.00;;;20.50;75.70;;;;;;4999472;28;20094;-66
2023/12/01 00:20:17;;;;;;;16.17;2.80;;;20.50;75.80;;;;;;4990265;28;20070;-65
2023/12/01 00:22:43;;;;;;;18.88;3.70;;;20.40;76.20;;;;;;4993461;28;20410;-66
2023/12/01 00:25:10;;;;;;;20.15;3.65;;;20.30;76.40;;;;;;5000168;28;20054;-65
2023/12/01 00:27:36;;;;;;;22.58;4.15;;;20.30;76.60;;;;;;4990354;28;20062;-65
2023/12/01 00:30:03;;;;;;;35.65;3.80;;;20.20;76.60;;;;;;5001271;28;20054;-65
2023/12/01 00:32:29;;;;;;;21.50;4.65;;;20.10;77.00;;;;;;5003760;28;20048;-64
2023/12/01 00:34:56;;;;;;;22.92;3.90;;;20.10;77.20;;;;;;4996862;28;20067;-65
2023/12/01 00:37:22;;;;;;;19.17;5.10;;;20.10;77.80;;;;;;5001992;28;20062;-65
2023/12/01 00:39:49;;;;;;;27.63;7.47;;;20.00;78.70;;;;;;4991458;28;20143;-65
2023/12/01 00:42:15;;;;;;;38.67;12.63;;;19.80;79.00;;;;;;4990687;28;20056;-65
2023/12/01 00:44:44;;;;;;;35.92;8.48;;;19.80;79.50;;;;;;5001998;28;20104;-65
2023/12/01 00:47:10;;;;;;;9.73;4.93;;;19.70;79.70;;;;;;4997524;28;20093;-64
2023/12/01 00:49:37;;;;;;;23.83;6.15;;;19.60;79.70;;;;;;4990869;28;20052;-64
2023/12/01 00:52:04;;;;;;;22.33;5.05;;;19.50;80.10;;;;;;4998567;28;20412;-65
2023/12/01 00:54:31;;;;;;;33.00;4.97;;;19.50;80.40;;;;;;4999861;28;20525;-66
2023/12/01 00:56:57;;;;;;;24.48;7.10;;;19.50;80.40;;;;;;4994780;28;20092;-64
2023/12/01 00:59:24;;;;;;;25.52;9.07;;;19.40;81.00;;;;;;4991484;28;20147;-64
2023/12/01 01:01:51;;;;;;;29.92;7.40;;;19.40;81.60;;;;;;5005908;28;20106;-64
2023/12/01 01:04:17;;;;;;;20.42;5.07;;;19.40;81.80;;;;;;4992883;28;20458;-64
2023/12/01 01:06:44;;;;;;;22.98;5.53;;;19.40;81.80;;;;;;4970357;28;20089;-64
2023/12/01 01:09:10;;;;;;;26.63;5.68;;;19.30;82.00;;;;;;4993979;28;20055;-65
2023/12/01 01:11:37;;;;;;;29.77;5.00;;;19.30;82.00;;;;;;4995188;28;20062;-65
2023/12/01 01:14:03;;;;;;;31.38;5.68;;;19.30;82.20;;;;;;4997127;28;20067;-64
2023/12/01 01:16:30;;;;;;;32.58;5.30;;;19.20;82.30;;;;;;4996048;28;20050;-64
2023/12/01 01:18:56;;;;;;;25.23;4.82;;;19.30;82.50;;;;;;4995222;28;20083;-65
2023/12/01 01:21:23;;;;;;;42.47;5.68;;;19.20;82.30;;;;;;4993365;28;20604;-64
2023/12/01 01:23:49;;;;;;;36.90;5.13;;;19.20;83.10;;;;;;4996401;28;20064;-65
2023/12/01 01:26:16;;;;;;;29.00;5.28;;;19.20;82.70;;;;;;5012939;28;20047;-65
2023/12/01 01:28:43;;;;;;;32.03;7.47;;;19.20;82.60;;;;;;5002110;28;20117;-66
2023/12/01 01:31:09;;;;;;;29.55;6.97;;;19.10;83.60;;;;;;4996623;28;20065;-64
2023/12/01 01:33:36;;;;;;;36.50;5.88;;;19.10;83.00;;;;;;4995687;28;20523;-65
2023/12/01 01:36:04;;;;;;;30.38;5.38;;;19.10;82.80;;;;;;5003503;28;20195;-64
2023/12/01 01:38:30;;;;;;;39.45;5.78;;;19.10;83.00;;;;;;4994578;28;20056;-64
2023/12/01 01:40:57;;;;;;;32.65;5.85;;;19.20;83.70;;;;;;4995858;28;20060;-65
2023/12/01 01:43:23;;;;;;;37.33;6.05;;;19.10;83.80;;;;;;5005820;28;20100;-65
2023/12/01 01:46:04;;;;;;;36.92;6.10;;;19.10;83.90;;;;;;4992669;28;20055;-66
2023/12/01 01:48:32;;;;;;;53.95;6.50;;;19.00;84.00;;;;;;4992047;28;20072;-66
2023/12/01 01:51:00;;;;;;;59.17;8.15;;;19.00;83.70;;;;;;4995392;28;20064;-65
2023/12/01 01:53:29;;;;;;;61.13;6.93;;;19.00;83.90;;;;;;4998286;28;20142;-65
2023/12/01 01:55:58;;;;;;;53.13;7.18;;;19.00;84.40;;;;;;4999029;28;20048;-65
2023/12/01 01:58:26;;;;;;;53.22;8.27;;;19.00;84.30;;;;;;5003777;28;20148;-66
2023/12/01 02:00:52;;;;;;;52.17;7.53;;;18.90;84.30;;;;;;4997010;28;20056;-67
2023/12/01 02:03:21;;;;;;;52.42;7.43;;;18.90;84.60;;;;;;4997040;28;20068;-67
2023/12/01 02:05:48;;;;;;;56.85;8.68;;;18.90;85.70;;;;;;5011800;28;20135;-66
2023/12/01 02:08:27;;;;;;;87.15;10.38;;;18.80;85.90;;;;;;4995290;28;20147;-70
2023/12/01 02:10:56;;;;;;;50.97;10.65;;;18.80;85.50;;;;;;5006461;28;20097;-67
2023/12/01 02:13:24;;;;;;;59.72;12.10;;;18.80;85.50;;;;;;4996911;28;20057;-66
2023/12/01 02:15:51;;;;;;;43.03;10.70;;;18.80;85.00;;;;;;4997883;28;20085;-67
2023/12/01 02:18:26;;;;;;;30.08;9.07;;;18.80;85.10;;;;;;5000694;28;21906;-66
2023/12/01 02:20:54;;;;;;;44.60;8.50;;;18.90;84.90;;;;;;5001356;28;20059;-68
2023/12/01 02:23:22;;;;;;;21.75;5.03;;;18.90;84.20;;;;;;5002970;28;20060;-66
2023/12/01 02:25:48;;;;;;;26.60;9.77;;;19.00;83.30;;;;;;4992842;28;20182;-66
2023/12/01 02:28:16;;;;;;;29.27;8.45;;;19.10;82.60;;;;;;4994439;28;20067;-69
2023/12/01 02:30:47;;;;;;;35.25;9.65;;;19.10;82.80;;;;;;5002143;28;20055;-65
2023/12/01 02:33:17;;;;;;;35.58;9.77;;;19.10;82.90;;;;;;4993290;28;20084;-65
2023/12/01 02:35:45;;;;;;;35.65;8.77;;;19.10;82.70;;;;;;4995821;28;20126;-68
2023/12/01 02:38:12;;;;;;;41.63;9.82;;;19.10;82.60;;;;;;4996317;28;20060;-66
2023/12/01 02:40:42;;;;;;;39.03;9.10;;;19.00;82.80;;;;;;4995232;28;20117;-65
2023/12/01 02:43:13;;;;;;;47.40;9.43;;;18.90;83.20;;;;;;4994397;28;20590;-64
2023/12/01 02:45:39;;;;;;;38.42;8.25;;;18.90;83.40;;;;;;4991964;28;20526;-65
2023/12/01 02:48:06;;;;;;;36.03;8.90;;;18.80;83.20;;;;;;4995503;28;20065;-65
2023/12/01 02:50:33;;;;;;;36.47;8.88;;;18.80;83.40;;;;;;4991749;28;20063;-64
2023/12/01 02:53:04;;;;;;;47.05;9.38;;;18.70;83.70;;;;;;5001601;28;20143;-65
2023/12/01 02:55:30;;;;;;;31.35;7.38;;;18.60;84.30;;;;;;4996401;28;20563;-65
2023/12/01 02:57:57;;;;;;;24.77;7.25;;;18.60;85.00;;;;;;4995058;28;20506;-65
2023/12/01 03:00:24;;;;;;;16.75;5.47;;;18.70;85.80;;;;;;4993702;28;20061;-63
2023/12/01 03:02:51;;;;;;;13.23;3.90;;;18.70;86.30;;;;;;4991755;28;20528;-66
2023/12/01 03:05:19;;;;;;;10.13;3.25;;;18.70;86.70;;;;;;4989183;28;20420;-64
2023/12/01 03:07:45;;;;;;;7.78;3.05;;;18.70;86.90;;;;;;5002939;28;20616;-64
2023/12/01 03:10:12;;;;;;;9.43;2.80;;;18.70;87.10;;;;;;4993654;28;20047;-66
2023/12/01 03:12:40;;;;;;;13.40;2.92;;;18.80;87.30;;;;;;5009997;28;20426;-66
2023/12/01 03:15:18;;;;;;;11.82;2.95;;;18.80;87.40;;;;;;4999235;28;20048;-65
2023/12/01 03:17:45;;;;;;;6.55;2.72;;;18.80;87.60;;;;;;4996526;28;20053;-64
2023/12/01 03:20:11;;;;;;;16.55;3.15;;;18.80;87.90;;;;;;4999027;28;20044;-64
2023/12/01 03:22:39;;;;;;;13.90;3.20;;;18.80;88.20;;;;;;5002114;28;20053;-64
2023/12/01 03:25:12;;;;;;;25.02;5.15;;;18.80;88.30;;;;;;4996341;28;20068;-65
2023/12/01 03:27:44;;;;;;;9.38;4.20;;;18.80;88.50;;;;;;4992809;28;20104;-65
2023/12/01 03:30:20;;;;;;;16.63;3.75;;;18.80;88.70;;;;;;4985956;28;20122;-65
2023/12/01 03:32:50;;;;;;;10.15;3.50;;;18.80;88.90;;;;;;4990307;28;20557;-66
2023/12/01 03:35:20;;;;;;;9.23;3.42;;;18.80;89.10;;;;;;5005543;28;20115;-66
2023/12/01 03:37:48;;;;;;;23.52;4.63;;;18.70;89.30;;;;;;5002488;28;20044;-65
2023/12/01 03:40:15;;;;;;;16.92;4.25;;;18.60;89.60;;;;;;4993328;28;20062;-66
2023/12/01 03:42:48;;;;;;;16.35;4.38;;;18.70;89.90;;;;;;5001968;28;20082;-65
2023/12/01 03:45:15;;;;;;;18.38;4.45;;;18.60;90.10;;;;;;5000342;28;20063;-65
2023/12/01 03:47:50;;;;;;;18.98;4.15;;;18.60;90.20;;;;;;4996927;28;20071;-64
2023/12/01 03:50:18;;;;;;;14.68;3.72;;;18.50;90.30;;;;;;4993664;28;20055;-66
2023/12/01 03:52:47;;;;;;;13.05;3.05;;;18.50;90.40;;;;;;5004221;28;20051;-65
2023/12/01 03:55:14;;;;;;;11.15;2.67;;;18.50;90.60;;;;;;4930373;28;2043125;-64
2023/12/01 03:57:42;;;;;;;13.57;3.08;;;18.40;90.70;;;;;;4989111;28;20059;-65
2023/12/01 04:00:13;;;;;;;11.00;2.83;;;18.40;90.70;;;;;;4982024;28;20138;-66
2023/12/01 04:02:44;;;;;;;11.70;2.45;;;18.30;90.80;;;;;;4993107;28;20418;-65
2023/12/01 04:05:21;;;;;;;16.52;3.17;;;18.30;90.90;;;;;;4994377;28;20447;-67
2023/12/01 04:07:51;;;;;;;8.40;3.38;;;18.20;90.90;;;;;;5000292;28;20077;-66
2023/12/01 04:10:18;;;;;;;17.02;4.75;;;18.20;91.00;;;;;;4999964;28;20058;-66
2023/12/01 04:12:45;;;;;;;10.57;3.50;;;18.10;91.00;;;;;;4991818;28;20086;-67
2023/12/01 04:15:14;;;;;;;10.27;3.08;;;18.10;91.10;;;;;;4989055;28;20089;-65
2023/12/01 04:17:45;;;;;;;9.63;3.80;;;18.10;91.20;;;;;;5005467;28;20054;-64
2023/12/01 04:20:22;;;;;;;10.90;3.80;;;18.00;91.30;;;;;;4993717;28;20116;-66
2023/12/01 04:22:54;;;;;;;7.35;3.40;;;18.00;91.40;;;;;;5007517;28;20407;-65
2023/12/01 04:25:21;;;;;;;11.70;3.78;;;18.00;91.50;;;;;;4993498;28;20053;-66
2023/12/01 04:27:48;;;;;;;8.88;3.42;;;17.90;91.50;;;;;;5003432;28;20112;-66
2023/12/01 04:30:15;;;;;;;12.35;5.30;;;17.90;91.60;;;;;;4998361;28;20446;-66
2023/12/01 04:32:47;;;;;;;9.10;4.50;;;17.80;91.50;;;;;;4999091;28;20042;-64
2023/12/01 04:35:14;;;;;;;12.40;3.50;;;17.90;91.50;;;;;;5002072;28;20161;-64
2023/12/01 04:37:41;;;;;;;9.82;3.00;;;17.80;91.40;;;;;;5000657;28;20090;-66
2023/12/01 04:40:14;;;;;;;10.80;3.20;;;17.80;91.10;;;;;;4993052;28;20078;-65
2023/12/01 04:42:46;;;;;;;8.88;2.88;;;17.80;90.90;;;;;;5006441;28;20050;-65
2023/12/01 04:45:17;;;;;;;5.47;2.60;;;17.80;90.60;;;;;;4997628;28;20104;-64
2023/12/01 04:47:45;;;;;;;10.18;2.88;;;17.80;90.40;;;;;;4991161;28;20075;-64
2023/12/01 04:50:15;;;;;;;9.50;2.85;;;17.80;90.20;;;;;;4999973;28;20511;-65
2023/12/01 04:52:44;;;;;;;12.40;2.15;;;17.90;90.10;;;;;;5000035;28;20440;-63
2023/12/01 04:55:18;;;;;;;6.45;2.45;;;17.80;89.70;;;;;;4996245;28;20124;-63
2023/12/01 04:57:45;;;;;;;5.90;1.98;;;17.80;89.30;;;;;;4997256;28;20066;-64
2023/12/01 05:00:21;;;;;;;6.75;3.05;;;17.80;89.20;;;;;;5006791;28;20418;-65
2023/12/01 05:03:04;;;;;;;6.77;2.80;;;17.80;89.20;;;;;;4996635;28;20149;-64
2023/12/01 05:05:38;;;;;;;14.63;2.60;;;17.80;89.10;;;;;;4993242;28;20466;-66
2023/12/01 05:08:07;;;;;;;6.32;2.33;;;17.80;88.90;;;;;;5001034;28;20073;-63
2023/12/01 05:10:35;;;;;;;6.53;2.20;;;17.70;88.80;;;;;;4995611;28;20141;-64
2023/12/01 05:13:06;;;;;;;10.93;2.28;;;17.80;88.60;;;;;;5005716;28;20538;-66
2023/12/01 05:15:35;;;;;;;8.77;2.30;;;17.70;88.50;;;;;;4996299;28;20518;-65
2023/12/01 05:18:12;;;;;;;8.57;2.10;;;17.70;88.50;;;;;;4998380;28;20137;-64
2023/12/01 05:20:40;;;;;;;7.85;2.70;;;17.70;88.60;;;;;;5001990;28;20072;-64
2023/12/01 05:23:10;;;;;;;4.95;2.13;;;17.70;88.50;;;;;;5005565;28;20436;-64
2023/12/01 05:25:41;;;;;;;6.78;1.88;;;17.70;88.40;;;;;;5000366;28;20391;-66
2023/12/01 05:28:08;;;;;;;9.40;1.90;;;17.70;88.30;;;;;;4995226;28;20086;-66
2023/12/01 05:30:43;;;;;;;8.75;2.25;;;17.70;88.20;;;;;;5010631;28;20063;-65
2023/12/01 05:33:09;;;;;;;6.30;1.85;;;17.70;88.00;;;;;;5001245;28;20041;-65
2023/12/01 05:35:37;;;;;;;10.38;2.40;;;17.70;87.90;;;;;;4993207;28;20444;-65
2023/12/01 05:38:04;;;;;;;5.43;2.05;;;17.70;88.70;;;;;;5008145;28;20062;-64
2023/12/01 05:40:34;;;;;;;8.60;2.10;;;17.70;87.70;;;;;;5000550;28;20059;-66
2023/12/01 05:43:00;;;;;;;5.90;2.30;;;17.60;87.80;;;;;;4997596;28;20069;-66
2023/12/01 05:45:29;;;;;;;6.45;2.47;;;17.60;87.90;;;;;;4995775;28;20159;-65
2023/12/01 05:47:56;;;;;;;12.82;3.03;;;17.60;88.10;;;;;;4995562;28;20079;-65
2023/12/01 05:50:31;;;;;;;10.98;2.72;;;17.50;88.10;;;;;;4995555;28;20080;-64
2023/12/01 05:53:02;;;;;;;13.45;3.17;;;17.60;88.20;;;;;;5006355;28;20049;-66
2023/12/01 05:55:32;;;;;;;13.65;3.03;;;17.50;88.30;;;;;;4995186;28;20549;-63
2023/12/01 05:58:10;;;;;;;14.43;2.88;;;17.50;88.50;;;;;;5001358;28;20114;-65
2023/12/01 06:00:36;;;;;;;11.15;2.75;;;17.40;88.60;;;;;;4993751;28;20073;-65
2023/12/01 06:03:07;;;;;;;9.25;3.30;;;17.40;88.80;;;;;;4993420;28;20066;-64
2023/12/01 06:05:35;;;;;;;10.07;2.90;;;17.30;89.10;;;;;;4995519;28;20107;-66
2023/12/01 06:08:02;;;;;;;7.70;3.05;;;17.30;89.30;;;;;;4992474;28;20066;-65
2023/12/01 06:10:31;;;;;;;8.23;3.17;;;17.30;89.50;;;;;;4992714;28;20055;-64
2023/12/01 06:12:59;;;;;;;7.50;2.40;;;17.20;90.00;;;;;;5005638;28;20561;-63
2023/12/01 06:15:29;;;;;;;6.90;2.65;;;17.10;90.10;;;;;;4996880;28;20137;-65
2023/12/01 06:18:01;;;;;;;4.88;2.13;;;17.10;90.20;;;;;;5011345;28;20084;-65
2023/12/01 06:20:29;;;;;;;4.95;1.73;;;17.10;90.30;;;;;;4997184;28;20419;-63
2023/12/01 06:23:06;;;;;;;10.55;1.98;;;17.00;90.40;;;;;;4993408;28;20081;-62
2023/12/01 06:25:36;;;;;;;5.85;1.67;;;17.00;90.50;;;;;;5002535;28;20156;-65
2023/12/01 06:28:04;;;;;;;4.95;1.67;;;17.00;90.60;;;;;;5000213;28;20074;-64
2023/12/01 06:30:36;;;;;;;3.95;1.42;;;16.90;90.70;;;;;;4993022;28;20086;-63
2023/12/01 06:33:04;;;;;;;4.88;1.85;;;16.80;90.90;;;;;;4993151;28;20094;-65
2023/12/01 06:35:30;;;;;;;5.07;2.08;;;16.80;91.10;;;;;;4992345;28;20124;-64
2023/12/01 06:37:57;;;;;;;5.88;2.50;;;16.70;91.30;;;;;;4998522;28;20062;-65
2023/12/01 06:40:23;;;;;;;3.70;2.38;;;16.70;91.40;;;;;;5003196;28;20055;-66
2023/12/01 06:42:52;;;;;;;5.65;2.33;;;16.70;91.40;;;;;;5006757;28;20052;-65
2023/12/01 06:45:26;;;;;;;10.60;3.92;;;16.70;91.50;;;;;;4995275;28;20056;-65
2023/12/01 06:47:53;;;;;;;4.82;2.28;;;16.60;91.60;;;;;;4997545;28;20090;-64
2023/12/01 06:50:21;;;;;;;10.68;3.17;;;16.60;91.80;;;;;;5000601;28;20134;-65
2023/12/01 06:52:52;;;;;;;8.25;3.58;;;16.60;91.80;;;;;;5000822;28;20159;-66
2023/12/01 06:55:19;;;;;;;9.40;2.45;;;16.60;91.90;;;;;;4999317;28;20179;-65
2023/12/01 06:57:47;;;;;;;5.85;2.20;;;16.50;92.10;;;;;;4994424;28;20054;-65
2023/12/01 07:00:36;;;;;;;8.63;2.20;;;16.50;92.20;;;;;;5000129;28;20068;-65
2023/12/01 07:03:08;;;;;;;5.53;1.27;;;16.40;92.40;;;;;;4992822;28;20087;-66
2023/12/01 07:05:37;;;;;;;3.05;1.30;;;16.40;92.50;;;;;;5006977;28;20066;-66
2023/12/01 07:08:04;;;;;;;6.32;1.45;;;16.40;92.50;;;;;;5002260;28;20529;-65
2023/12/01 07:10:33;;;;;;;2.80;1.00;;;16.30;92.80;;;;;;4993285;28;20057;-66
2023/12/01 07:13:00;;;;;;;5.93;1.60;;;16.20;92.90;;;;;;4996194;28;20054;-67
2023/12/01 07:15:27;;;;;;;27.25;17.38;;;16.20;93.10;;;;;;5001570;28;20054;-66
2023/12/01 07:17:56;;;;;;;8.55;2.50;;;16.10;93.20;;;;;;5001060;28;20165;-65
2023/12/01 07:20:23;;;;;;;7.18;2.63;;;16.10;93.40;;;;;;5000764;28;20124;-65
2023/12/01 07:22:51;;;;;;;4.88;2.08;;;16.10;93.50;;;;;;4995101;28;20057;-65
2023/12/01 07:25:21;;;;;;;3.25;1.38;;;16.10;93.50;;;;;;4990932;28;20056;-68
2023/12/01 07:27:59;;;;;;;8.52;1.40;;;16.10;93.70;;;;;;5012814;28;20071;-66
2023/12/01 07:30:29;;;;;;;3.78;1.23;;;16.10;93.80;;;;;;4985793;28;20058;-66
2023/12/01 07:32:57;;;;;;;3.00;1.00;;;16.10;93.90;;;;;;5005837;28;20065;-65
2023/12/01 07:35:24;;;;;;;3.55;1.35;;;16.10;93.90;;;;;;4997869;28;20385;-66
2023/12/01 07:37:52;;;;;;;2.90;1.10;;;16.10;93.90;;;;;;5001631;28;20575;-66
2023/12/01 07:40:19;;;;;;;5.40;1.17;;;16.10;93.90;;;;;;5000860;28;20145;-65
2023/12/01 07:42:47;;;;;;;3.05;1.00;;;16.20;93.90;;;;;;5001454;28;20055;-65
2023/12/01 07:45:17;;;;;;;1.98;1.33;;;16.20;93.90;;;;;;4994075;28;20074;-64
2023/12/01 07:47:47;;;;;;;3.67;1.98;;;16.20;94.00;;;;;;5005533;28;20061;-64
2023/12/01 07:50:15;;;;;;;5.25;1.45;;;16.20;93.90;;;;;;5000208;28;20498;-64
2023/12/01 07:52:51;;;;;;;5.65;1.70;;;16.20;93.90;;;;;;4991129;28;20130;-65
2023/12/01 07:55:22;;;;;;;4.05;1.40;;;16.20;94.00;;;;;;4992935;28;20173;-64
2023/12/01 07:57:48;;;;;;;4.72;1.70;;;16.20;93.90;;;;;;5000754;28;20064;-66
2023/12/01 08:00:16;;;;;;;6.43;1.83;;;16.20;94.10;;;;;;4997792;28;20084;-66
2023/12/01 08:02:44;;;;;;;7.00;2.15;;;16.10;94.10;;;;;;4997329;28;20068;-66
2023/12/01 08:05:13;;;;;;;6.35;2.53;;;16.10;94.20;;;;;;4999047;28;20088;-66
2023/12/01 08:07:53;;;;;;;6.50;2.28;;;16.10;94.20;;;;;;4998877;28;20087;-66
2023/12/01 08:10:20;;;;;;;5.40;1.90;;;16.10;94.20;;;;;;5005713;28;20060;-65
2023/12/01 08:12:49;;;;;;;4.75;2.30;;;16.00;94.10;;;;;;4995479;28;20049;-66
2023/12/01 08:15:17;;;;;;;7.15;2.28;;;16.10;94.00;;;;;;4992204;28;20089;-66
2023/12/01 08:17:45;;;;;;;4.88;2.10;;;16.00;94.00;;;;;;5003189;28;20058;-66
2023/12/01 08:20:12;;;;;;;6.22;2.00;;;16.00;93.90;;;;;;4995521;28;20093;-66
2023/12/01 08:22:39;;;;;;;3.25;1.67;;;16.00;93.90;;;;;;4996981;28;20062;-66
2023/12/01 08:25:09;;;;;;;5.40;2.20;;;16.00;93.70;;;;;;4994231;28;20061;-66
2023/12/01 08:27:37;;;;;;;2.85;1.98;;;16.00;93.70;;;;;;5006092;28;20072;-67
2023/12/01 08:30:04;;;;;;;7.45;2.22;;;16.00;93.50;;;;;;4995664;28;20080;-64
2023/12/01 08:32:31;;;;;;;4.95;1.77;;;16.00;93.40;;;;;;4993755;28;20130;-65
2023/12/01 08:34:57;;;;;;;7.10;1.65;;;16.00;93.20;;;;;;5002902;28;20055;-65
2023/12/01 08:37:24;;;;;;;5.70;1.83;;;16.00;93.20;;;;;;4995794;28;20070;-65
2023/12/01 08:39:51;;;;;;;5.93;1.88;;;16.00;93.30;;;;;;5002828;28;20140;-66
2023/12/01 08:42:18;;;;;;;6.13;2.15;;;16.00;93.30;;;;;;5003031;28;20065;-66
2023/12/01 08:44:45;;;;;;;4.85;1.83;;;16.00;93.10;;;;;;5001556;28;20063;-64
2023/12/01 08:47:13;;;;;;;4.88;1.83;;;16.00;93.10;;;;;;4998267;28;20164;-64
2023/12/01 08:49:42;;;;;;;6.53;2.55;;;16.00;93.20;;;;;;5008858;28;20604;-65
2023/12/01 08:52:09;;;;;;;4.43;2.22;;;16.00;93.20;;;;;;5000756;28;20088;-64
2023/12/01 08:54:35;;;;;;;7.72;2.80;;;16.00;93.40;;;;;;4993918;28;20073;-63
2023/12/01 08:57:02;;;;;;;9.95;3.30;;;16.00;93.40;;;;;;5007426;28;20057;-63
2023/12/01 08:59:29;;;;;;;7.57;3.58;;;16.00;93.30;;;;;;5000964;28;20144;-63
2023/12/01 09:01:55;;;;;;;6.28;3.30;;;16.00;93.20;;;;;;5006603;28;20532;-63
2023/12/01 09:04:21;;;;;;;8.05;3.60;;;16.00;93.00;;;;;;5003463;28;20111;-64
2023/12/01 09:06:48;;;;;;;7.18;2.65;;;16.10;92.90;;;;;;4999878;28;20516;-64
2023/12/01 09:09:14;;;;;;;5.82;2.72;;;16.20;92.90;;;;;;5009173;28;20489;-63
2023/12/01 09:11:41;;;;;;;9.20;3.25;;;16.20;92.80;;;;;;4995791;28;20415;-64
2023/12/01 09:14:07;;;;;;;6.68;3.10;;;16.20;92.80;;;;;;5008183;28;20042;-65
2023/12/01 09:16:34;;;;;;;6.57;3.28;;;16.20;92.80;;;;;;5003986;28;20073;-64
2023/12/01 09:19:00;;;;;;;9.45;3.53;;;16.10;92.80;;;;;;4996170;28;20067;-65
2023/12/01 09:21:26;;;;;;;8.35;3.40;;;16.10;92.70;;;;;;4997576;28;20115;-65
2023/12/01 09:23:53;;;;;;;8.52;3.10;;;16.00;92.90;;;;;;4999785;28;20055;-64
2023/12/01 09:26:20;;;;;;;6.57;2.85;;;16.00;93.30;;;;;;5006820;28;20073;-65
2023/12/01 09:28:50;;;;;;;9.63;3.22;;;15.90;93.40;;;;;;5000056;28;20078;-66
2023/12/01 09:31:17;;;;;;;4.97;2.80;;;15.90;93.60;;;;;;4993303;28;20540;-65
2023/12/01 09:33:43;;;;;;;9.85;2.90;;;15.90;93.70;;;;;;5012836;28;20059;-64
2023/12/01 09:36:11;;;;;;;8.48;3.13;;;15.70;93.70;;;;;;4997084;28;20061;-65
2023/12/01 09:38:37;;;;;;;6.68;2.53;;;15.70;93.70;;;;;;4997278;28;20084;-64
2023/12/01 09:41:04;;;;;;;8.85;2.97;;;15.60;94.00;;;;;;4996076;28;20612;-65
2023/12/01 09:43:34;;;;;;;9.98;2.97;;;15.60;94.10;;;;;;4996180;28;20146;-64
2023/12/01 09:46:01;;;;;;;6.50;2.85;;;15.50;94.20;;;;;;4992970;28;20449;-65
2023/12/01 09:48:33;;;;;;;4.22;2.13;;;15.50;94.50;;;;;;5004752;28;20081;-64
2023/12/01 09:51:00;;;;;;;7.38;3.03;;;15.50;94.50;;;;;;5005775;28;20052;-65
2023/12/01 09:53:27;;;;;;;7.65;3.10;;;15.40;94.60;;;;;;4996038;28;20090;-65
2023/12/01 09:55:54;;;;;;;7.63;3.00;;;15.40;94.70;;;;;;5003798;28;20061;-64
2023/12/01 09:58:21;;;;;;;7.97;3.05;;;15.40;95.00;;;;;;4996420;28;20057;-65
2023/12/01 10:00:48;;;;;;;8.55;3.25;;;15.30;94.90;;;;;;5000838;28;20153;-62
2023/12/01 10:03:14;;;;;;;8.45;3.22;;;15.20;95.10;;;;;;4998565;28;20069;-64
2023/12/01 10:05:43;;;;;;;8.57;3.20;;;15.20;95.10;;;;;;4993990;28;20063;-65
2023/12/01 10:08:09;;;;;;;11.43;3.63;;;15.20;95.50;;;;;;4977734;28;20085;-65
2023/12/01 10:10:36;;;;;;;6.75;3.28;;;15.20;95.60;;;;;;4997728;28;20057;-64
2023/12/01 10:13:07;;;;;;;6.07;2.92;;;15.10;95.60;;;;;;4993409;28;20124;-64
2023/12/01 10:15:40;;;;;;;8.48;3.35;;;15.00;95.80;;;;;;4999444;28;20810;-65
2023/12/01 10:18:12;;;;;;;9.88;3.08;;;15.00;96.00;;;;;;4994460;28;20110;-64
2023/12/01 10:20:42;;;;;;;8.13;3.40;;;14.90;96.10;;;;;;5004488;28;20086;-64
2023/12/01 10:23:19;;;;;;;10.48;2.80;;;14.90;96.20;;;;;;5001394;28;20073;-64
2023/12/01 10:25:52;;;;;;;9.35;2.90;;;14.80;96.50;;;;;;4991753;28;20159;-65
2023/12/01 10:28:19;;;;;;;5.85;2.95;;;14.80;96.60;;;;;;5002669;28;20434;-64
2023/12/01 10:30:57;;;;;;;8.75;2.80;;;14.80;96.60;;;;;;5002422;28;20504;-64
2023/12/01 10:33:31;;;;;;;7.72;3.03;;;14.80;96.50;;;;;;4996971;28;20054;-66
2023/12/01 10:36:10;;;;;;;9.02;3.00;;;14.70;96.60;;;;;;5008308;28;20539;-63
2023/12/01 10:38:37;;;;;;;7.30;2.50;;;14.70;96.70;;;;;;4994974;28;20073;-65
2023/12/01 10:41:05;;;;;;;6.78;2.70;;;14.70;96.70;;;;;;5011140;28;20075;-64
2023/12/01 10:43:32;;;;;;;9.27;2.95;;;14.60;96.70;;;;;;4998500;28;20197;-64
2023/12/01 10:46:05;;;;;;;9.02;2.80;;;14.60;96.90;;;;;;4995905;28;20425;-64
2023/12/01 10:48:33;;;;;;;6.53;2.63;;;14.50;97.00;;;;;;4997795;28;20075;-64
2023/12/01 10:51:05;;;;;;;7.05;2.58;;;14.50;97.20;;;;;;5000077;28;20083;-65
2023/12/01 10:53:32;;;;;;;7.90;2.63;;;14.50;97.20;;;;;;4993399;28;20078;-65
2023/12/01 10:56:04;;;;;;;8.43;2.90;;;14.50;97.20;;;;;;4992050;28;20077;-64
2023/12/01 10:58:34;;;;;;;8.48;2.80;;;14.40;97.40;;;;;;4995232;28;20561;-64
2023/12/01 11:01:02;;;;;;;7.03;2.97;;;14.40;97.50;;;;;;4991616;28;20076;-65
2023/12/01 11:03:32;;;;;;;14.00;3.65;;;14.40;97.40;;;;;;4998504;28;20143;-64
2023/12/01 11:06:14;;;;;;;14.43;4.72;;;14.20;97.50;;;;;;4992331;28;20158;-65
2023/12/01 11:09:08;;;;;;;13.35;6.18;;;14.10;97.60;;;;;;5005746;28;20495;-65
2023/12/01 11:12:04;;;;;;;22.35;7.15;;;14.10;97.70;;;;;;4995918;28;20073;-64
2023/12/01 11:14:33;;;;;;;26.98;8.23;;;14.10;98.00;;;;;;4981428;28;20068;-65
2023/12/01 11:17:00;;;;;;;24.95;9.50;;;14.10;98.00;;;;;;5003005;28;20076;-64
2023/12/01 11:19:38;;;;;;;24.50;9.48;;;14.00;98.00;;;;;;4994833;28;20163;-65
2023/12/01 11:22:24;;;;;;;32.05;10.20;;;14.00;98.10;;;;;;5000204;28;20153;-64
2023/12/01 11:24:50;;;;;;;35.50;13.48;;;14.00;98.20;;;;;;4997565;28;20079;-64
2023/12/01 11:27:18;;;;;;;34.63;13.30;;;13.90;98.20;;;;;;4999228;28;20090;-65
2023/12/01 11:30:06;;;;;;;32.25;13.38;;;13.80;98.20;;;;;;4994740;28;20075;-64
2023/12/01 11:32:38;;;;;;;48.60;20.75;;;13.80;98.20;;;;;;4992544;28;20557;-63
2023/12/01 11:35:09;;;;;;;45.83;20.23;;;13.70;98.50;;;;;;5005465;28;20130;-65
2023/12/01 11:37:54;;;;;;;59.20;22.35;;;13.70;99.00;;;;;;4996781;28;20072;-65
2023/12/01 11:40:26;;;;;;;43.60;22.20;;;13.80;99.40;;;;;;5007642;28;20076;-66
2023/12/01 11:42:55;;;;;;;47.05;22.98;;;13.70;99.60;;;;;;4993730;28;20163;-64
2023/12/01 11:45:44;;;;;;;53.75;22.45;;;13.60;99.90;;;;;;5010349;28;20066;-65
2023/12/01 11:48:10;;;;;;;45.15;21.63;;;13.60;99.90;;;;;;4984379;28;20151;-64
2023/12/01 11:50:41;;;;;;;51.85;23.48;;;13.50;99.90;;;;;;5004567;28;21774;-65
2023/12/01 11:53:18;;;;;;;53.55;22.80;;;13.40;99.90;;;;;;4995870;28;20203;-65
2023/12/01 11:55:50;;;;;;;47.25;23.33;;;13.40;99.90;;;;;;4997545;28;20088;-64
2023/12/01 11:58:18;;;;;;;58.47;23.33;;;13.40;99.90;;;;;;4998518;28;20084;-64
2023/12/01 12:00:44;;;;;;;49.38;22.73;;;13.40;99.90;;;;;;4993288;28;20085;-64
2023/12/01 12:03:20;;;;;;;;;;;13.40;99.90;;;;;;5002366;28;20077;-65
2023/12/01 12:05:47;;;;;;;45.25;21.67;;;13.50;99.90;;;;;;4994633;28;19974;-65
2023/12/01 12:08:15;;;;;;;54.47;22.83;;;13.40;99.90;;;;;;4990611;28;20080;-64
2023/12/01 12:10:42;;;;;;;43.65;23.17;;;13.50;99.90;;;;;;4999738;28;20098;-65
2023/12/01 12:13:11;;;;;;;43.67;20.20;;;13.40;99.90;;;;;;5000849;28;20088;-65
2023/12/01 12:15:38;;;;;;;59.78;22.67;;;13.40;99.90;;;;;;4993511;28;20099;-63
2023/12/01 12:18:04;;;;;;;;;;;13.40;99.90;;;;;;4994844;28;20107;-65
2023/12/01 12:20:30;;;;;;;52.50;24.60;;;13.40;99.90;;;;;;4999688;28;20053;-65
2023/12/01 12:22:56;;;;;;;;;;;13.30;99.90;;;;;;4992277;28;20156;-65
2023/12/01 12:25:33;;;;;;;54.42;26.10;;;13.20;99.90;;;;;;4997154;28;19959;-65
2023/12/01 12:27:59;;;;;;;54.72;25.88;;;13.20;99.90;;;;;;5006950;28;20090;-64
2023/12/01 12:30:26;;;;;;;55.17;24.75;;;13.10;99.90;;;;;;5002327;28;20081;-65
2023/12/01 12:32:52;;;;;;;;;;;13.10;99.90;;;;;;4994157;28;20235;-66
2023/12/01 12:35:18;;;;;;;55.75;26.00;;;13.00;99.90;;;;;;5000772;28;19960;-65
2023/12/01 12:37:45;;;;;;;59.80;24.92;;;13.00;99.90;;;;;;4995831;28;20072;-65
2023/12/01 12:40:15;;;;;;;64.45;25.95;;;13.00;99.90;;;;;;4994776;28;20078;-65
2023/12/01 12:42:56;;;;;;;49.10;24.55;;;13.00;99.90;;;;;;4998862;28;20073;-65
2023/12/01 12:45:22;;;;;;;47.25;25.15;;;12.90;99.90;;;;;;5002161;28;20201;-63
2023/12/01 12:47:49;;;;;;;57.00;26.50;;;12.90;99.90;;;;;;4994411;28;20093;-64
2023/12/01 12:50:18;;;;;;;;;;;13.00;99.90;;;;;;5004580;28;20435;-64